Time;durP1;ratioP1;P1;durP2;ratioP2;P2;SDS_P1;SDS_P2;PMS_P1;PMS_P2;Temp;Humidity;BMP_temperature;BMP_pressure;BME280_temperature;BME280_humidity;BME280_pressure;Samples;Min_cycle;Max_cycle;Signal;HPM_P1;HPM_P2
2022/03/10 00:02:13;;;;;;;71.32;37.70;;;;;;;17.60;100.00;98639.09;5008241;28;20045;-63
2022/03/10 00:05:02;;;;;;;78.97;37.97;;;;;;;17.65;100.00;98639.69;5009058;28;20232;-65
2022/03/10 00:07:44;;;;;;;63.55;36.15;;;;;;;17.62;100.00;98642.50;4997397;28;20121;-64
2022/03/10 00:10:39;;;;;;;73.15;35.78;;;;;;;17.56;100.00;98642.78;5001137;28;20061;-64
2022/03/10 00:13:16;;;;;;;61.90;33.55;;;;;;;17.60;100.00;98644.31;5007399;28;20053;-65
2022/03/10 00:16:11;;;;;;;64.00;34.60;;;;;;;17.61;100.00;98646.00;4994277;28;20139;-64
2022/03/10 00:18:49;;;;;;;61.40;32.88;;;;;;;17.57;100.00;98642.72;5008686;28;20061;-65
2022/03/10 00:21:41;;;;;;;70.25;34.83;;;;;;;17.60;100.00;98652.97;4988867;28;20140;-64
2022/03/10 00:24:23;;;;;;;62.15;32.38;;;;;;;17.55;100.00;98656.78;4988546;28;20058;-65
2022/03/10 00:27:12;;;;;;;66.10;32.88;;;;;;;17.52;100.00;98662.16;4987881;28;20256;-64
2022/03/10 00:30:01;;;;;;;73.25;35.38;;;;;;;17.49;100.00;98664.91;4988590;28;20137;-64
2022/03/10 00:32:45;;;;;;;70.85;33.63;;;;;;;17.48;100.00;98660.66;4999512;28;20046;-64
2022/03/10 00:35:34;;;;;;;65.32;35.47;;;;;;;17.54;100.00;98671.56;5008031;28;20050;-65
2022/03/10 00:38:17;;;;;;;72.88;35.60;;;;;;;17.54;100.00;98687.19;4989050;28;20510;-65
2022/03/10 00:41:05;;;;;;;81.47;37.15;;;;;;;17.57;100.00;98683.56;5004837;28;20049;-64
2022/03/10 00:43:47;;;;;;;68.75;36.25;;;;;;;17.59;100.00;98692.13;5004981;28;20420;-64
2022/03/10 00:46:35;;;;;;;82.20;37.28;;;;;;;17.61;100.00;98690.28;5005933;28;20064;-65
2022/03/10 00:49:17;;;;;;;79.50;36.83;;;;;;;17.60;100.00;98686.84;5006286;28;20678;-64
2022/03/10 00:52:06;;;;;;;78.57;38.90;;;;;;;17.55;100.00;98694.09;5007090;28;20049;-65
2022/03/10 00:54:48;;;;;;;79.18;39.17;;;;;;;17.53;100.00;98684.69;5006397;28;20049;-64
2022/03/10 00:57:37;;;;;;;84.82;40.97;;;;;;;17.51;100.00;98684.75;5000704;28;20064;-64
2022/03/10 01:00:24;;;;;;;85.82;39.63;;;;;;;17.52;100.00;98688.19;5006416;28;20054;-64
2022/03/10 01:03:14;;;;;;;84.93;38.97;;;;;;;17.51;100.00;98683.91;5006637;28;20171;-64
2022/03/10 01:05:56;;;;;;;73.10;38.90;;;;;;;17.46;100.00;98684.19;5009657;28;20089;-65
2022/03/10 01:08:45;;;;;;;87.80;41.45;;;;;;;17.42;100.00;98682.69;4999335;28;20683;-64
2022/03/10 01:11:27;;;;;;;75.60;41.90;;;;;;;17.37;100.00;98681.28;4987914;28;20057;-65
2022/03/10 01:14:15;;;;;;;82.07;39.63;;;;;;;17.33;100.00;98687.56;5006896;28;20157;-64
2022/03/10 01:16:58;;;;;;;89.63;39.90;;;;;;;17.43;100.00;98699.16;5007484;28;20421;-64
2022/03/10 01:19:47;;;;;;;70.45;38.53;;;;;;;17.41;100.00;98698.38;5007180;28;20061;-65
2022/03/10 01:22:29;;;;;;;80.15;39.58;;;;;;;17.33;100.00;98698.81;5006064;28;20465;-64
2022/03/10 01:25:18;;;;;;;87.78;40.83;;;;;;;17.40;100.00;98699.34;5005960;28;20175;-64
2022/03/10 01:28:00;;;;;;;79.82;39.58;;;;;;;17.41;100.00;98701.00;5005847;28;20081;-65
2022/03/10 01:30:48;;;;;;;82.75;40.85;;;;;;;17.44;100.00;98700.81;5007039;28;20076;-64
2022/03/10 01:33:37;;;;;;;78.47;38.60;;;;;;;17.45;100.00;98705.13;5005592;28;20050;-64
2022/03/10 01:36:19;;;;;;;80.68;37.75;;;;;;;17.53;100.00;98702.91;5006066;28;20211;-64
2022/03/10 01:39:13;;;;;;;77.75;37.58;;;;;;;17.69;100.00;98710.69;5009051;28;20048;-64
2022/03/10 01:41:49;;;;;;;78.18;35.20;;;;;;;17.75;100.00;98710.34;5006407;28;20409;-64
2022/03/10 01:44:43;;;;;;;80.05;35.63;;;;;;;17.83;100.00;98714.16;5002291;28;20084;-64
2022/03/10 01:47:18;;;;;;;76.28;36.78;;;;;;;17.84;100.00;98723.66;5005099;28;20119;-64
2022/03/10 01:50:08;;;;;;;81.97;40.03;;;;;;;17.93;100.00;98724.91;5013303;28;20050;-65
2022/03/10 01:52:52;;;;;;;87.55;41.60;;;;;;;18.01;100.00;98727.91;5004300;28;20373;-65
2022/03/10 01:55:41;;;;;;;94.35;43.53;;;;;;;18.07;100.00;98726.69;5009586;28;20112;-64
2022/03/10 01:58:23;;;;;;;94.95;46.38;;;;;;;18.16;100.00;98724.38;4989113;28;20050;-64
2022/03/10 02:01:11;;;;;;;98.47;43.72;;;;;;;18.26;100.00;98728.09;5000217;28;20044;-65
2022/03/10 02:03:55;;;;;;;101.25;44.97;;;;;;;18.41;100.00;98734.16;5004480;28;20162;-65
2022/03/10 02:06:51;;;;;;;98.47;45.65;;;;;;;18.46;100.00;98742.53;5003217;28;20096;-65
2022/03/10 02:12:32;;;;;;;93.90;43.88;;;;;;;18.68;100.00;98753.34;5004742;28;20070;-65
2022/03/10 02:18:30;;;;;;;94.03;42.13;;;;;;;18.90;100.00;98760.72;5003135;28;20050;-65
2022/03/10 02:21:11;;;;;;;100.53;44.15;;;;;;;18.97;100.00;98761.16;4997601;28;20057;-65
2022/03/10 02:23:59;;;;;;;88.97;42.53;;;;;;;19.04;100.00;98765.91;5005102;28;20131;-66
2022/03/10 02:26:41;;;;;;;92.80;44.13;;;;;;;19.16;100.00;98772.09;5009062;28;20049;-65
2022/03/10 02:29:36;;;;;;;95.47;42.90;;;;;;;19.39;100.00;98771.50;4987083;28;20049;-65
2022/03/10 02:32:19;;;;;;;102.55;44.53;;;;;;;19.66;100.00;98770.66;5010541;28;20049;-64
2022/03/10 02:35:08;;;;;;;96.13;43.53;;;;;;;19.75;100.00;98776.13;5002154;28;20069;-65
2022/03/10 02:37:52;;;;;;;88.22;42.45;;;;;;;19.93;95.49;98778.47;5010508;28;20049;-64
2022/03/10 02:41:00;;;;;;;103.47;44.30;;;;;;;19.83;94.97;98789.53;4978982;28;20064;-64
2022/03/10 02:43:42;;;;;;;106.50;45.85;;;;;;;20.09;96.80;98786.97;4991838;28;20088;-65
2022/03/10 02:46:31;;;;;;;98.63;43.72;;;;;;;20.27;93.99;98797.97;4993493;28;20050;-65
2022/03/10 02:49:13;;;;;;;93.60;41.53;;;;;;;20.39;87.74;98798.00;5010638;28;20053;-65
2022/03/10 02:52:03;;;;;;;87.10;38.95;;;;;;;20.64;85.28;98797.16;5007866;28;20620;-65
2022/03/10 02:54:54;;;;;;;78.78;37.13;;;;;;;21.05;83.17;98796.03;4983568;28;20364;-65
2022/03/10 02:57:43;;;;;;;78.32;34.53;;;;;;;21.30;81.25;98801.25;4986744;28;20077;-65
2022/03/10 03:00:25;;;;;;;78.30;34.53;;;;;;;21.53;81.53;98802.19;4983783;28;21224;-65
2022/03/10 03:03:14;;;;;;;72.82;34.03;;;;;;;21.74;78.86;98816.34;4991958;28;20153;-65
2022/03/10 03:05:56;;;;;;;75.18;31.95;;;;;;;21.95;73.10;98808.72;4999571;28;20065;-65
2022/03/10 03:08:44;;;;;;;70.95;30.60;;;;;;;22.23;70.10;98818.81;4984492;28;20061;-66
2022/03/10 03:11:26;;;;;;;66.63;27.35;;;;;;;22.25;68.65;98826.59;4989842;28;20061;-65
2022/03/10 03:14:15;;;;;;;51.45;27.55;;;;;;;22.25;65.28;98831.84;4992132;28;20045;-65
2022/03/10 03:17:03;;;;;;;70.10;26.80;;;;;;;22.32;67.47;98826.00;4993654;28;20061;-65
2022/03/10 03:19:52;;;;;;;71.93;27.63;;;;;;;22.50;68.65;98831.66;5009280;28;20053;-65
2022/03/10 03:22:34;;;;;;;47.65;20.20;;;;;;;22.41;65.49;98838.44;4993678;28;20057;-64
2022/03/10 03:25:23;;;;;;;47.95;19.13;;;;;;;22.50;65.26;98837.75;5008349;28;20054;-65
2022/03/10 03:28:05;;;;;;;41.80;18.17;;;;;;;22.65;67.59;98840.16;5012545;28;20045;-64
2022/03/10 03:30:59;;;;;;;47.58;17.45;;;;;;;22.93;65.50;98842.31;5009488;28;20061;-65
2022/03/10 03:33:50;;;;;;;31.77;13.70;;;;;;;22.87;60.47;98840.19;5003648;28;20056;-65
2022/03/10 03:36:39;;;;;;;36.65;14.02;;;;;;;23.06;62.01;98850.94;5007545;28;20076;-66
2022/03/10 03:39:21;;;;;;;37.67;16.10;;;;;;;23.10;59.55;98844.47;5009916;28;20057;-66
2022/03/10 03:42:09;;;;;;;29.52;12.77;;;;;;;23.30;60.34;98849.97;5006377;28;20053;-65
2022/03/10 03:44:51;;;;;;;33.60;13.40;;;;;;;23.52;58.96;98844.69;5008571;28;20057;-66
2022/03/10 03:47:40;;;;;;;31.42;13.85;;;;;;;23.56;61.01;98848.72;5006240;28;20152;-65
2022/03/10 03:50:24;;;;;;;43.50;15.80;;;;;;;23.56;55.87;98846.09;5004777;28;20049;-65
2022/03/10 03:53:14;;;;;;;35.65;15.73;;;;;;;23.81;58.00;98840.53;5007799;28;20161;-66
2022/03/10 03:55:56;;;;;;;41.03;16.27;;;;;;;23.89;59.02;98835.47;5008591;28;20128;-65
2022/03/10 03:58:45;;;;;;;37.30;16.75;;;;;;;24.26;55.55;98843.00;5007277;28;20465;-66
2022/03/10 04:01:27;;;;;;;50.85;18.58;;;;;;;24.46;55.38;98839.53;5007136;28;20099;-65
2022/03/10 04:04:18;;;;;;;40.45;18.20;;;;;;;24.66;53.11;98838.66;5004543;28;20089;-66
2022/03/10 04:07:00;;;;;;;50.15;18.55;;;;;;;25.01;54.17;98846.22;5007590;28;20042;-66
2022/03/10 04:09:49;;;;;;;29.35;17.27;;;;;;;25.02;51.87;98845.25;5004884;28;20049;-66
2022/03/10 04:12:32;;;;;;;40.75;18.13;;;;;;;25.29;50.83;98849.94;5006276;28;20053;-65
2022/03/10 04:15:21;;;;;;;44.13;18.05;;;;;;;25.38;51.17;98848.28;5006691;28;20085;-66
2022/03/10 04:18:03;;;;;;;45.95;20.40;;;;;;;25.84;50.77;98850.31;5007997;28;20648;-66
2022/03/10 04:20:53;;;;;;;40.60;17.17;;;;;;;26.14;50.24;98839.63;4988072;28;20234;-66
2022/03/10 04:23:41;;;;;;;49.65;18.13;;;;;;;26.25;48.74;98839.50;5005727;28;20296;-66
2022/03/10 04:26:23;;;;;;;40.38;17.92;;;;;;;26.13;50.02;98845.88;4995141;28;20796;-66
2022/03/10 04:29:13;;;;;;;33.55;16.42;;;;;;;26.34;48.78;98834.34;5005120;28;20125;-66
2022/03/10 04:32:08;;;;;;;36.05;16.10;;;;;;;26.49;47.84;98846.16;5005651;28;20843;-65
2022/03/10 04:34:57;;;;;;;35.83;15.52;;;;;;;26.78;47.90;98841.59;5000507;28;20050;-65
2022/03/10 04:37:45;;;;;;;28.38;14.73;;;;;;;26.78;45.80;98848.69;5012067;28;20060;-66
2022/03/10 04:40:27;;;;;;;38.50;12.98;;;;;;;26.95;49.58;98846.16;4994061;28;20061;-66
2022/03/10 04:43:16;;;;;;;30.83;12.80;;;;;;;26.66;47.71;98848.03;4998392;28;20158;-66
2022/03/10 04:45:59;;;;;;;36.25;13.57;;;;;;;27.34;46.54;98853.91;4992202;28;20123;-65
2022/03/10 04:48:48;;;;;;;27.92;11.73;;;;;;;27.15;47.04;98854.00;4988741;28;20069;-66
2022/03/10 04:51:30;;;;;;;33.08;13.57;;;;;;;27.44;45.50;98860.00;5000675;28;20084;-66
2022/03/10 04:54:19;;;;;;;35.08;13.82;;;;;;;27.49;47.29;98849.78;5002599;28;20057;-66
2022/03/10 04:57:01;;;;;;;31.42;12.25;;;;;;;27.73;49.13;98850.06;5001574;28;20054;-67
2022/03/10 04:59:49;;;;;;;33.53;12.07;;;;;;;27.82;47.37;98848.34;5004958;28;20075;-65
2022/03/10 05:02:31;;;;;;;34.85;10.82;;;;;;;27.74;43.68;98850.91;4999003;28;20061;-66
2022/03/10 05:05:20;;;;;;;19.42;8.02;;;;;;;28.26;47.36;98851.91;5003588;28;20049;-65
2022/03/10 05:08:02;;;;;;;15.60;7.25;;;;;;;28.27;45.64;98856.22;5004151;28;20800;-65
2022/03/10 05:10:52;;;;;;;21.08;7.55;;;;;;;28.26;46.30;98862.50;5001850;28;20042;-65
2022/03/10 05:13:36;;;;;;;20.90;7.40;;;;;;;28.00;43.73;98854.47;5002951;28;20053;-64
2022/03/10 05:16:26;;;;;;;17.65;6.65;;;;;;;27.92;44.09;98859.72;5001121;28;20048;-65
2022/03/10 05:19:10;;;;;;;14.20;6.85;;;;;;;28.24;44.39;98847.75;5002492;28;20367;-65
2022/03/10 05:21:59;;;;;;;21.70;8.18;;;;;;;28.40;45.65;98843.41;5005365;28;20053;-66
2022/03/10 05:24:41;;;;;;;20.20;7.72;;;;;;;28.35;45.66;98842.19;5003778;28;20572;-65
2022/03/10 05:27:29;;;;;;;21.15;7.38;;;;;;;28.75;45.23;98846.94;5004951;28;20061;-65
2022/03/10 05:30:12;;;;;;;16.15;7.88;;;;;;;28.70;45.28;98849.22;5008531;28;20533;-65
2022/03/10 05:33:06;;;;;;;22.35;6.93;;;;;;;28.52;46.85;98836.84;5008608;28;20370;-67
2022/03/10 05:35:41;;;;;;;21.70;7.13;;;;;;;28.50;46.99;98838.81;4995482;28;20065;-66
2022/03/10 05:38:30;;;;;;;20.35;6.68;;;;;;;28.88;44.42;98847.38;5016548;28;20052;-65
2022/03/10 05:41:12;;;;;;;20.58;6.47;;;;;;;28.66;46.41;98846.03;5010446;28;20147;-65
2022/03/10 05:44:01;;;;;;;16.17;7.00;;;;;;;28.71;45.43;98840.28;4995705;28;20053;-63
2022/03/10 05:46:49;;;;;;;20.58;7.38;;;;;;;28.53;43.10;98843.00;5004118;28;20628;-65
2022/03/10 05:49:44;;;;;;;17.58;7.50;;;;;;;28.79;43.50;98835.91;5008168;28;20127;-64
2022/03/10 05:52:19;;;;;;;23.98;7.38;;;;;;;28.53;48.35;98825.25;5001510;28;20057;-65
2022/03/10 05:55:15;;;;;;;24.73;8.10;;;;;;;28.60;44.59;98827.28;5002618;28;20045;-65
2022/03/10 05:57:54;;;;;;;14.15;7.35;;;;;;;28.72;42.78;98826.88;5002913;28;20050;-65
2022/03/10 06:00:44;;;;;;;18.85;8.57;;;;;;;28.82;42.65;98826.78;5005389;28;20054;-65
2022/03/10 06:03:33;;;;;;;23.92;8.43;;;;;;;28.90;42.25;98818.84;4993725;28;20061;-64
2022/03/10 06:06:28;;;;;;;17.02;7.22;;;;;;;29.22;44.88;98819.00;5000914;28;20074;-64
2022/03/10 06:09:04;;;;;;;24.77;7.45;;;;;;;28.92;44.40;98822.19;4998785;28;20065;-64
2022/03/10 06:11:53;;;;;;;30.08;10.25;;;;;;;29.07;45.50;98817.09;4992941;28;20076;-64
2022/03/10 06:14:35;;;;;;;23.75;9.63;;;;;;;29.03;47.67;98803.34;4994216;28;20051;-63
2022/03/10 06:17:25;;;;;;;21.38;8.00;;;;;;;28.97;43.35;98814.59;4991311;28;20066;-63
2022/03/10 06:20:08;;;;;;;22.92;7.38;;;;;;;28.98;43.32;98810.94;4985598;28;20046;-63
2022/03/10 06:22:57;;;;;;;24.35;7.68;;;;;;;29.29;43.86;98800.63;4993400;28;20113;-63
2022/03/10 06:25:39;;;;;;;24.48;8.13;;;;;;;29.16;45.19;98793.09;4995167;28;20074;-65
2022/03/10 06:28:28;;;;;;;14.35;7.00;;;;;;;29.11;41.45;98792.75;4991198;28;20429;-64
2022/03/10 06:31:16;;;;;;;21.23;7.35;;;;;;;28.99;42.83;98799.34;4988973;28;20050;-65
2022/03/10 06:34:11;;;;;;;22.10;6.63;;;;;;;28.71;43.88;98796.03;4968814;28;20054;-64
2022/03/10 06:36:46;;;;;;;22.13;7.50;;;;;;;28.86;46.34;98783.88;4965546;28;20061;-64
2022/03/10 06:39:35;;;;;;;19.80;7.15;;;;;;;29.11;42.57;98790.09;4965326;28;20050;-64
2022/03/10 06:42:26;;;;;;;27.10;7.85;;;;;;;29.07;45.19;98778.13;4964820;28;20050;-64
2022/03/10 06:45:15;;;;;;;20.88;8.15;;;;;;;29.23;44.04;98769.41;4965931;28;20094;-64
2022/03/10 06:48:04;;;;;;;32.95;9.73;;;;;;;28.97;46.48;98772.16;4965708;28;20055;-65
2022/03/10 06:50:46;;;;;;;25.58;8.15;;;;;;;29.11;44.12;98766.22;4963871;28;20046;-65
2022/03/10 06:53:35;;;;;;;22.83;8.85;;;;;;;29.19;45.75;98763.59;4969690;28;20050;-64
2022/03/10 06:56:17;;;;;;;19.70;8.63;;;;;;;29.17;43.93;98757.59;4967556;28;20149;-65
2022/03/10 06:59:06;;;;;;;24.08;7.60;;;;;;;29.21;44.19;98753.63;4964515;28;20065;-65
2022/03/10 07:01:48;;;;;;;18.60;7.43;;;;;;;29.20;44.66;98751.16;4985513;28;20461;-64
2022/03/10 07:04:37;;;;;;;16.50;6.70;;;;;;;28.81;44.26;98754.34;4969999;28;20073;-64
2022/03/10 07:07:19;;;;;;;20.35;6.97;;;;;;;29.03;45.96;98742.31;4936095;28;20544;-64
2022/03/10 07:10:09;;;;;;;18.63;7.57;;;;;;;29.13;41.68;98750.97;4964736;28;20083;-64
2022/03/10 07:12:51;;;;;;;;;;;;;;;28.97;41.58;98753.59;4967111;28;20758;-64
2022/03/10 07:15:40;;;;;;;22.88;8.13;;;;;;;29.04;44.36;98741.34;4965755;28;19953;-64
2022/03/10 07:18:22;;;;;;;20.77;7.43;;;;;;;28.98;41.98;98747.25;4965757;28;20446;-65
2022/03/10 07:21:11;;;;;;;23.38;7.38;;;;;;;29.01;41.61;98736.34;4965669;28;20057;-64
2022/03/10 07:24:06;;;;;;;34.90;9.05;;;;;;;29.09;43.01;98739.00;4972947;28;20157;-65
2022/03/10 07:26:42;;;;;;;24.23;10.00;;;;;;;29.27;46.47;98726.44;4963717;28;20146;-64
2022/03/10 07:29:31;;;;;;;31.63;10.13;;;;;;;28.96;45.63;98716.59;4984270;28;20054;-64
2022/03/10 07:32:13;;;;;;;31.45;10.48;;;;;;;28.89;44.08;98716.41;4987677;28;20152;-63
2022/03/10 07:35:09;;;;;;;24.95;10.10;;;;;;;29.18;42.96;98716.81;5003000;28;20054;-63
2022/03/10 07:37:46;;;;;;;21.40;8.43;;;;;;;29.04;39.75;98719.28;5003983;28;20425;-63
2022/03/10 07:40:41;;;;;;;28.08;9.57;;;;;;;28.87;40.13;98715.75;5005378;28;20045;-64
2022/03/10 07:43:17;;;;;;;27.48;10.27;;;;;;;28.82;41.99;98712.72;5005422;28;20057;-64
2022/03/10 07:46:12;;;;;;;30.83;9.90;;;;;;;28.98;42.22;98715.41;5005070;28;20470;-63
2022/03/10 07:48:47;;;;;;;27.95;9.48;;;;;;;28.83;42.00;98711.72;5004497;28;20050;-65
2022/03/10 07:51:36;;;;;;;20.00;8.25;;;;;;;28.83;42.62;98701.13;5005037;28;20050;-64
2022/03/10 07:54:25;;;;;;;19.42;8.40;;;;;;;28.71;43.46;98697.09;5004186;28;20054;-63
2022/03/10 07:57:14;;;;;;;20.80;7.43;;;;;;;28.79;40.13;98699.78;5004961;28;20053;-63
2022/03/10 07:59:56;;;;;;;25.42;7.05;;;;;;;28.81;41.04;98698.66;5003585;28;20128;-63
2022/03/10 08:02:45;;;;;;;12.57;6.18;;;;;;;28.70;39.42;98700.72;5003700;28;20149;-64
2022/03/10 08:05:27;;;;;;;17.90;5.97;;;;;;;28.88;43.94;98689.06;5005437;28;20046;-63
2022/03/10 08:08:16;;;;;;;17.45;7.75;;;;;;;28.64;40.41;98685.47;5005589;28;20085;-64
2022/03/10 08:10:58;;;;;;;20.83;7.43;;;;;;;28.80;39.18;98681.06;5005994;28;20046;-63
2022/03/10 08:13:46;;;;;;;19.48;8.15;;;;;;;28.79;41.46;98679.41;5007855;28;20045;-63
2022/03/10 08:16:34;;;;;;;22.05;7.07;;;;;;;28.66;43.24;98668.38;5007453;28;20377;-63
2022/03/10 08:19:16;;;;;;;22.25;8.10;;;;;;;28.82;41.64;98672.94;5007259;28;20124;-64
2022/03/10 08:22:08;;;;;;;18.88;8.23;;;;;;;28.75;42.59;98677.19;5008084;28;20425;-63
2022/03/10 08:24:57;;;;;;;21.05;7.95;;;;;;;28.82;41.20;98672.94;5006629;28;20056;-63
2022/03/10 08:27:39;;;;;;;12.40;6.85;;;;;;;28.46;41.17;98669.63;5004537;28;20057;-63
2022/03/10 08:30:28;;;;;;;24.65;8.35;;;;;;;28.34;39.84;98663.78;5006859;28;20068;-64
2022/03/10 08:33:23;;;;;;;22.35;7.05;;;;;;;28.45;40.69;98665.31;5007448;28;20355;-63
2022/03/10 08:36:13;;;;;;;19.15;6.45;;;;;;;28.26;40.46;98655.78;5003382;28;20045;-64
2022/03/10 08:38:55;;;;;;;14.90;6.30;;;;;;;28.37;43.11;98642.25;4991502;28;20373;-65
2022/03/10 08:41:51;;;;;;;21.98;6.85;;;;;;;28.37;43.88;98642.25;4985938;28;20496;-66
2022/03/10 08:44:40;;;;;;;25.15;6.70;;;;;;;28.21;44.49;98641.38;4990259;28;20052;-67
2022/03/10 08:47:21;;;;;;;19.90;6.60;;;;;;;28.17;42.88;98641.69;5006826;28;20056;-65
2022/03/10 08:50:17;;;;;;;22.67;6.20;;;;;;;28.29;43.42;98628.16;5007040;28;20042;-65
2022/03/10 08:52:52;;;;;;;19.45;6.45;;;;;;;28.34;43.01;98634.63;5005616;28;20073;-66
2022/03/10 08:55:41;;;;;;;24.27;6.38;;;;;;;28.25;42.33;98629.47;5004236;28;20506;-65
2022/03/10 08:58:22;;;;;;;24.27;6.22;;;;;;;28.17;41.50;98632.91;5002126;28;20050;-66
2022/03/10 09:01:17;;;;;;;21.58;5.85;;;;;;;27.93;42.22;98620.34;4996518;28;20061;-65
2022/03/10 09:03:59;;;;;;;21.83;5.47;;;;;;;27.86;42.28;98626.44;4988947;28;20129;-65
2022/03/10 09:06:48;;;;;;;29.23;6.38;;;;;;;27.95;42.83;98614.88;4994049;28;20050;-65
2022/03/10 09:09:30;;;;;;;15.52;5.28;;;;;;;27.97;43.00;98618.19;4999269;28;20129;-64
2022/03/10 09:12:19;;;;;;;16.52;4.90;;;;;;;27.90;41.71;98619.81;4985617;28;20050;-65
2022/03/10 09:15:08;;;;;;;26.63;6.38;;;;;;;28.00;45.21;98617.88;4981305;28;20070;-65
2022/03/10 09:17:50;;;;;;;13.52;5.38;;;;;;;27.94;43.93;98607.91;4981856;28;20042;-65
2022/03/10 09:20:41;;;;;;;11.93;5.20;;;;;;;27.79;43.72;98610.31;4993145;28;20433;-65
2022/03/10 09:23:23;;;;;;;15.70;4.97;;;;;;;27.71;44.55;98610.25;4988502;28;20050;-66
2022/03/10 09:26:11;;;;;;;10.52;4.88;;;;;;;27.76;44.90;98611.47;4989865;28;20711;-66
2022/03/10 09:28:53;;;;;;;21.13;5.10;;;;;;;27.75;43.27;98607.16;4988844;28;20545;-66
2022/03/10 09:31:41;;;;;;;18.52;4.82;;;;;;;27.72;43.76;98599.50;4987279;28;20048;-66
2022/03/10 09:34:36;;;;;;;12.50;4.50;;;;;;;27.73;43.34;98603.00;5004412;28;20068;-66
2022/03/10 09:37:12;;;;;;;10.60;4.32;;;;;;;27.73;42.48;98601.19;5005688;28;20080;-66
2022/03/10 09:40:02;;;;;;;12.63;4.20;;;;;;;27.76;44.19;98605.34;5005174;28;20131;-66
2022/03/10 09:42:44;;;;;;;17.58;4.32;;;;;;;27.65;44.32;98595.84;5006339;28;20284;-66
2022/03/10 09:45:43;;;;;;;17.23;4.05;;;;;;;27.49;43.48;98603.63;5005293;28;20060;-67
2022/03/10 09:48:19;;;;;;;16.17;4.65;;;;;;;27.48;43.59;98596.66;5006079;28;20061;-66
2022/03/10 09:51:08;;;;;;;10.50;4.07;;;;;;;27.51;44.07;98596.38;5006591;28;20351;-66
2022/03/10 09:53:57;;;;;;;14.32;4.07;;;;;;;27.56;45.48;98586.19;5005484;28;20059;-67
2022/03/10 09:56:46;;;;;;;14.18;4.43;;;;;;;27.58;43.87;98600.09;5004999;28;20136;-65
2022/03/10 09:59:28;;;;;;;14.88;4.40;;;;;;;27.54;43.66;98585.50;5003187;28;20061;-67
2022/03/10 10:02:24;;;;;;;8.27;3.78;;;;;;;27.59;44.47;98577.94;5006232;28;20525;-66
2022/03/10 10:04:59;;;;;;;12.57;4.85;;;;;;;27.50;43.12;98591.22;5006300;28;20049;-66
2022/03/10 10:08:20;;;;;;;11.75;3.78;;;;;;;27.48;43.24;98587.91;5004052;28;20046;-66
2022/03/10 10:11:09;;;;;;;11.23;3.70;;;;;;;27.43;42.64;98585.72;4971174;28;20492;-66
2022/03/10 10:13:51;;;;;;;13.02;5.30;;;;;;;27.36;44.11;98571.47;5005712;28;20497;-66
2022/03/10 10:16:39;;;;;;;13.68;3.72;;;;;;;27.39;43.31;98587.00;5005623;28;20041;-66
2022/03/10 10:19:21;;;;;;;13.95;4.45;;;;;;;27.31;42.68;98581.66;5004682;28;20698;-66
2022/03/10 10:22:24;;;;;;;15.57;4.50;;;;;;;27.31;42.66;98576.38;5003991;28;20084;-67
2022/03/10 10:25:02;;;;;;;12.65;3.90;;;;;;;27.24;42.78;98572.69;5006075;28;20163;-67
2022/03/10 10:27:52;;;;;;;12.00;4.82;;;;;;;27.19;42.64;98572.31;4973032;28;20052;-66
2022/03/10 10:30:34;;;;;;;;;;;;;;;27.23;43.60;98571.84;5006715;28;20049;-67
2022/03/10 10:33:29;;;;;;;12.18;3.95;;;;;;;27.17;43.67;98566.34;5005836;28;19925;-67
2022/03/10 10:36:26;;;;;;;16.13;4.90;;;;;;;27.19;43.78;98570.50;4985330;28;20050;-67
2022/03/10 10:39:22;;;;;;;13.30;3.95;;;;;;;27.12;43.91;98560.69;4986415;28;20815;-66
2022/03/10 10:42:15;;;;;;;19.60;4.50;;;;;;;27.09;45.53;98563.63;4986564;28;20138;-67
2022/03/10 10:45:06;;;;;;;19.25;4.60;;;;;;;27.04;44.82;98562.28;5004885;28;20050;-67
2022/03/10 10:48:11;;;;;;;18.92;4.60;;;;;;;26.99;44.27;98563.72;5005643;28;20050;-66
2022/03/10 10:50:59;;;;;;;18.27;4.00;;;;;;;26.93;44.33;98559.88;5005212;28;20057;-66
2022/03/10 10:53:47;;;;;;;19.02;4.15;;;;;;;26.81;44.13;98547.00;5008867;28;20068;-67
2022/03/10 10:56:29;;;;;;;17.83;3.90;;;;;;;26.88;44.29;98553.34;5004363;28;20056;-67
2022/03/10 10:59:39;;;;;;;13.40;4.35;;;;;;;26.81;43.42;98553.13;5003849;28;20125;-66
2022/03/10 11:02:20;;;;;;;15.95;3.78;;;;;;;26.80;43.98;98543.53;5004623;28;20131;-66
2022/03/10 11:05:14;;;;;;;14.07;4.05;;;;;;;26.75;43.50;98544.97;5002856;28;20054;-66
2022/03/10 11:07:59;;;;;;;14.02;3.28;;;;;;;26.67;42.30;98540.41;5005194;28;20049;-66
2022/03/10 11:10:49;;;;;;;13.40;3.85;;;;;;;26.60;43.31;98542.00;5003118;28;20076;-67
2022/03/10 11:13:35;;;;;;;20.95;4.45;;;;;;;26.50;44.70;98538.63;5004977;28;20053;-66
2022/03/10 11:16:24;;;;;;;24.90;4.10;;;;;;;26.51;43.54;98537.63;5005107;28;20069;-66
2022/03/10 11:19:06;;;;;;;15.57;3.58;;;;;;;26.43;44.05;98541.00;4986958;28;20125;-66
2022/03/10 11:21:59;;;;;;;10.73;4.18;;;;;;;26.40;44.68;98541.34;5003682;28;20073;-66
2022/03/10 11:24:55;;;;;;;13.18;4.35;;;;;;;26.41;44.65;98544.81;5005915;28;20050;-67
2022/03/10 11:27:44;;;;;;;13.65;4.80;;;;;;;26.36;45.06;98537.31;5003535;28;20104;-65
2022/03/10 11:30:33;;;;;;;13.45;4.75;;;;;;;26.34;45.84;98538.47;5003357;28;20060;-66
2022/03/10 11:33:39;;;;;;;16.58;4.30;;;;;;;26.26;44.59;98536.56;5005772;28;20062;-66
2022/03/10 11:36:31;;;;;;;12.60;4.53;;;;;;;26.15;46.26;98537.56;5014135;28;20054;-66
2022/03/10 11:39:21;;;;;;;13.80;4.27;;;;;;;26.18;46.33;98537.25;5009922;28;20076;-66
2022/03/10 11:42:27;;;;;;;24.90;4.28;;;;;;;26.12;46.90;98532.56;5028838;28;20057;-66
2022/03/10 11:45:21;;;;;;;17.88;4.43;;;;;;;26.05;46.82;98542.03;4999154;28;20128;-66
2022/03/10 11:48:25;;;;;;;22.02;5.35;;;;;;;26.04;46.14;98545.66;5008934;28;20046;-66
2022/03/10 11:51:19;;;;;;;18.42;4.80;;;;;;;26.00;46.48;98544.31;5007605;28;20425;-66
2022/03/10 11:54:08;;;;;;;24.50;5.53;;;;;;;25.93;47.13;98543.22;5009101;28;20748;-65
2022/03/10 11:56:55;;;;;;;15.85;5.40;;;;;;;25.94;47.74;98544.06;5005678;28;20045;-66
2022/03/10 11:59:46;;;;;;;19.88;5.90;;;;;;;25.76;48.35;98536.91;5008100;28;20045;-66
2022/03/10 12:02:43;;;;;;;21.88;4.80;;;;;;;25.75;48.94;98542.34;5008022;28;20074;-66
2022/03/10 12:05:55;;;;;;;15.57;5.35;;;;;;;25.67;49.20;98542.22;5009047;28;20052;-66
2022/03/10 12:08:45;;;;;;;18.38;5.00;;;;;;;25.62;49.25;98550.56;5007674;28;20044;-66
2022/03/10 12:11:51;;;;;;;22.13;4.93;;;;;;;25.53;50.46;98549.59;4990850;28;20049;-67
2022/03/10 12:14:36;;;;;;;17.08;4.80;;;;;;;25.51;49.64;98553.34;5009865;28;20056;-66
2022/03/10 12:17:58;;;;;;;30.83;6.18;;;;;;;25.47;50.58;98549.31;5006235;28;20133;-66
2022/03/10 12:20:42;;;;;;;15.63;5.03;;;;;;;25.42;50.79;98548.94;5006611;28;20060;-66
2022/03/10 12:23:33;;;;;;;18.93;5.97;;;;;;;25.36;51.80;98549.50;5007896;28;20046;-66
2022/03/10 12:26:15;;;;;;;27.05;5.30;;;;;;;25.35;51.76;98559.22;5007501;28;20042;-66
2022/03/10 12:29:12;;;;;;;35.80;6.68;;;;;;;25.27;51.76;98551.19;5028448;28;20432;-66
2022/03/10 12:32:10;;;;;;;22.42;6.25;;;;;;;25.17;51.06;98550.38;5006190;28;20050;-66
2022/03/10 12:34:52;;;;;;;20.25;5.47;;;;;;;25.12;51.14;98557.88;4980091;28;20708;-67
2022/03/10 12:37:41;;;;;;;23.73;6.35;;;;;;;25.01;52.11;98563.28;4971317;28;20055;-66
2022/03/10 12:40:28;;;;;;;18.73;5.60;;;;;;;24.93;52.04;98563.97;4974526;28;20383;-67
2022/03/10 12:43:16;;;;;;;15.45;4.57;;;;;;;24.92;51.88;98564.94;4969339;28;20062;-67
2022/03/10 12:45:58;;;;;;;15.27;5.50;;;;;;;24.85;53.18;98568.25;4971937;28;20112;-67
2022/03/10 12:49:30;;;;;;;18.75;5.50;;;;;;;24.90;53.82;98569.50;4974737;28;20344;-66
2022/03/10 12:52:14;;;;;;;21.15;6.70;;;;;;;24.76;53.17;98564.63;4974611;28;20054;-66
2022/03/10 12:55:02;;;;;;;20.70;5.90;;;;;;;24.69;53.60;98572.25;4953985;28;20062;-66
2022/03/10 12:57:51;;;;;;;21.40;5.90;;;;;;;24.60;53.28;98562.53;4969671;28;20743;-66
2022/03/10 13:00:33;;;;;;;19.55;5.50;;;;;;;24.48;53.09;98560.19;4967961;28;20066;-67
2022/03/10 13:03:22;;;;;;;19.02;5.30;;;;;;;24.44;55.09;98562.25;4970440;28;20046;-67